Time;durP1;ratioP1;P1;durP2;ratioP2;P2;SDS_P1;SDS_P2;PMS_P1;PMS_P2;Temp;Humidity;BMP_temperature;BMP_pressure;BME280_temperature;BME280_humidity;BME280_pressure;Samples;Min_cycle;Max_cycle;Signal;HPM_P1;HPM_P2
2023/08/15 00:00:37;;;;;;;6.18;4.63;;;;;;;19.71;100.00;100535.00;6163321;28;20112;-91
2023/08/15 00:03:39;;;;;;;9.40;4.70;;;;;;;19.68;100.00;100533.53;6165610;28;20774;-91
2023/08/15 00:06:41;;;;;;;7.72;4.68;;;;;;;19.63;100.00;100525.38;6177634;28;20433;-91
2023/08/15 00:09:42;;;;;;;7.28;4.70;;;;;;;19.57;100.00;100529.50;6171120;28;20238;-91
2023/08/15 00:12:44;;;;;;;8.65;4.47;;;;;;;19.52;100.00;100526.59;6159650;28;20039;-91
2023/08/15 00:15:46;;;;;;;7.50;4.57;;;;;;;19.48;100.00;100535.84;6162982;28;20081;-91
2023/08/15 00:18:48;;;;;;;6.90;4.60;;;;;;;19.44;100.00;100533.75;6165182;28;20510;-91
2023/08/15 00:21:50;;;;;;;6.32;4.20;;;;;;;19.41;100.00;100532.31;6165019;28;20043;-91
2023/08/15 00:24:52;;;;;;;7.43;4.53;;;;;;;19.36;100.00;100529.41;6174481;28;20042;-91
2023/08/15 00:27:54;;;;;;;9.05;4.40;;;;;;;19.33;100.00;100532.41;6175750;28;20075;-91
2023/08/15 00:30:56;;;;;;;9.55;4.35;;;;;;;19.29;100.00;100531.91;6175854;28;20456;-91
2023/08/15 00:33:58;;;;;;;6.75;4.25;;;;;;;19.28;100.00;100540.00;6170084;28;20504;-92
2023/08/15 00:37:01;;;;;;;7.00;4.60;;;;;;;19.26;100.00;100528.84;6164962;28;20038;-91
2023/08/15 00:40:04;;;;;;;9.02;4.25;;;;;;;19.23;100.00;100521.31;6161995;28;20051;-91
2023/08/15 00:43:06;;;;;;;6.47;4.05;;;;;;;19.22;100.00;100517.06;6164335;28;20133;-91
2023/08/15 00:46:08;;;;;;;7.40;4.53;;;;;;;19.18;100.00;100527.13;6168910;28;20035;-90
2023/08/15 00:49:10;;;;;;;5.82;4.53;;;;;;;19.14;100.00;100531.88;6164750;28;20153;-90
2023/08/15 00:52:14;;;;;;;8.25;4.40;;;;;;;19.14;100.00;100531.06;6165970;28;20105;-91
2023/08/15 00:55:18;;;;;;;6.20;4.38;;;;;;;19.12;100.00;100531.22;6160818;28;20082;-90
2023/08/15 00:58:20;;;;;;;5.72;4.30;;;;;;;19.09;100.00;100539.47;6163437;28;20066;-91
2023/08/15 01:01:24;;;;;;;9.55;4.68;;;;;;;19.07;100.00;100525.69;6174966;28;20542;-90
2023/08/15 01:04:26;;;;;;;6.90;4.85;;;;;;;19.05;100.00;100516.38;6164026;28;20054;-91
2023/08/15 01:07:28;;;;;;;8.35;4.55;;;;;;;19.05;100.00;100517.19;6178154;28;20519;-90
2023/08/15 01:10:31;;;;;;;8.57;4.40;;;;;;;19.05;100.00;100511.13;6166216;28;20039;-91
2023/08/15 01:14:01;;;;;;;7.22;4.82;;;;;;;19.05;100.00;100517.19;6165655;28;20054;-91
2023/08/15 01:17:07;;;;;;;6.32;4.22;;;;;;;19.06;100.00;100534.59;6171070;28;20043;-90
2023/08/15 01:20:14;;;;;;;8.98;5.05;;;;;;;19.05;100.00;100527.69;6169905;28;20050;-90
2023/08/15 01:23:23;;;;;;;7.53;4.72;;;;;;;19.03;100.00;100524.44;6171934;28;20047;-91
2023/08/15 01:26:25;;;;;;;6.20;4.47;;;;;;;19.03;100.00;100515.72;6148268;28;20137;-92
2023/08/15 01:29:27;;;;;;;6.88;4.38;;;;;;;19.01;100.00;100518.56;6169374;28;20046;-90
2023/08/15 01:32:40;;;;;;;5.97;4.68;;;;;;;18.99;100.00;100512.66;6168124;28;20515;-91
2023/08/15 01:35:46;;;;;;;8.48;4.80;;;;;;;18.96;100.00;100507.78;6170704;28;20046;-91
2023/08/15 01:38:57;;;;;;;5.70;4.22;;;;;;;18.98;100.00;100518.06;6170340;28;20054;-90
2023/08/15 01:42:02;;;;;;;8.05;4.25;;;;;;;18.96;100.00;100518.28;6168408;28;20046;-91
2023/08/15 01:45:06;;;;;;;5.95;4.63;;;;;;;18.95;100.00;100524.50;6174538;28;20035;-90
2023/08/15 01:48:08;;;;;;;5.90;4.40;;;;;;;18.94;100.00;100517.63;6183659;28;20042;-93
2023/08/15 01:51:11;;;;;;;7.70;4.55;;;;;;;18.91;100.00;100521.41;6178143;28;20031;-91
2023/08/15 01:54:13;;;;;;;9.32;4.80;;;;;;;18.90;100.00;100519.75;6175152;28;20046;-91
2023/08/15 01:57:15;;;;;;;6.15;4.35;;;;;;;18.86;100.00;100518.50;6180289;28;20077;-91
2023/08/15 02:00:17;;;;;;;7.75;4.18;;;;;;;18.84;100.00;100522.28;6179351;28;20046;-91
2023/08/15 02:03:19;;;;;;;6.30;4.35;;;;;;;18.84;100.00;100525.72;6175551;28;20081;-91
2023/08/15 02:06:21;;;;;;;6.57;4.78;;;;;;;18.83;100.00;100518.88;6172860;28;20126;-90
2023/08/15 02:09:24;;;;;;;7.95;4.68;;;;;;;18.80;100.00;100515.75;6172511;28;20047;-90
2023/08/15 02:12:25;;;;;;;6.95;4.18;;;;;;;18.80;100.00;100515.75;6164990;28;20621;-90
2023/08/15 02:15:27;;;;;;;5.43;4.55;;;;;;;18.79;100.00;100514.13;6179024;28;20046;-90
2023/08/15 02:18:31;;;;;;;5.95;4.70;;;;;;;18.77;100.00;100513.50;6176119;28;20058;-90
2023/08/15 02:21:32;;;;;;;7.85;4.75;;;;;;;18.75;100.00;100505.75;6173256;28;20076;-90
2023/08/15 02:24:34;;;;;;;7.60;4.60;;;;;;;18.78;100.00;100509.88;6166783;28;20047;-90
2023/08/15 02:27:36;;;;;;;5.38;4.70;;;;;;;18.78;100.00;100507.25;6180221;28;20059;-90
2023/08/15 02:30:38;;;;;;;7.47;5.68;;;;;;;18.79;100.00;100509.69;6178664;28;20578;-91
2023/08/15 02:33:40;;;;;;;5.97;4.82;;;;;;;18.78;100.00;100513.31;6191689;28;20054;-91
2023/08/15 02:36:49;;;;;;;7.68;4.93;;;;;;;18.80;100.00;100515.75;6178307;28;20165;-89
2023/08/15 02:39:52;;;;;;;7.17;5.30;;;;;;;18.78;100.00;100521.19;6176185;28;20043;-90
2023/08/15 02:42:54;;;;;;;7.90;4.45;;;;;;;18.76;100.00;100514.47;6166704;28;20073;-90
2023/08/15 02:45:55;;;;;;;8.82;4.80;;;;;;;18.73;100.00;100521.69;6168412;28;20042;-90
2023/08/15 02:48:59;;;;;;;8.60;4.47;;;;;;;18.74;100.00;100519.88;6147611;28;20047;-89
2023/08/15 02:52:01;;;;;;;5.47;4.20;;;;;;;18.73;100.00;100513.81;6180991;28;20046;-89
2023/08/15 02:55:04;;;;;;;12.15;5.30;;;;;;;18.72;100.00;100514.78;6180228;28;20108;-90
2023/08/15 02:58:06;;;;;;;6.60;4.80;;;;;;;18.71;100.00;100510.56;6180421;28;20081;-91
2023/08/15 03:01:08;;;;;;;9.18;5.22;;;;;;;18.72;100.00;100503.50;6167756;28;20046;-90
2023/08/15 03:04:12;;;;;;;5.68;4.60;;;;;;;18.75;100.00;100511.00;6169329;28;20492;-89
2023/08/15 03:07:15;;;;;;;5.97;4.60;;;;;;;18.79;100.00;100519.38;6156054;28;20116;-90
2023/08/15 03:10:17;;;;;;;8.13;4.38;;;;;;;18.81;100.00;100518.22;6168967;28;20049;-90
2023/08/15 03:13:19;;;;;;;6.45;5.18;;;;;;;18.76;100.00;100511.84;6168444;28;20512;-90
2023/08/15 03:16:22;;;;;;;7.38;4.78;;;;;;;18.75;100.00;100511.00;6169368;28;20049;-91
2023/08/15 03:19:24;;;;;;;5.57;4.63;;;;;;;18.73;100.00;100512.97;6170292;28;20451;-91
2023/08/15 03:22:25;;;;;;;9.70;5.10;;;;;;;18.71;100.00;100521.03;6191884;28;20042;-89
2023/08/15 03:25:28;;;;;;;7.47;4.95;;;;;;;18.69;100.00;100517.75;6163260;28;20046;-89
2023/08/15 03:28:31;;;;;;;8.90;5.00;;;;;;;18.64;100.00;100508.81;6179055;28;20181;-89
2023/08/15 03:31:33;;;;;;;8.25;5.00;;;;;;;18.58;100.00;100518.16;6170376;28;20050;-90
2023/08/15 03:34:35;;;;;;;9.77;5.50;;;;;;;18.54;100.00;100516.88;6181948;28;20189;-89
2023/08/15 03:37:37;;;;;;;6.05;4.80;;;;;;;18.52;100.00;100514.44;6166543;28;20511;-89
2023/08/15 03:40:38;;;;;;;9.20;5.10;;;;;;;18.50;100.00;100513.78;6169571;28;20042;-89
2023/08/15 03:43:40;;;;;;;8.23;5.00;;;;;;;18.46;100.00;100512.50;6168858;28;20157;-90
2023/08/15 03:46:42;;;;;;;7.25;4.78;;;;;;;18.45;100.00;100510.06;6167985;28;20051;-90
2023/08/15 03:49:44;;;;;;;12.48;5.50;;;;;;;18.43;100.00;100501.53;6171868;28;20061;-90
2023/08/15 03:52:46;;;;;;;6.32;4.45;;;;;;;18.42;100.00;100500.72;6170776;28;20100;-89
2023/08/15 03:55:49;;;;;;;6.25;4.57;;;;;;;18.40;100.00;100491.41;6168498;28;20042;-90
2023/08/15 03:58:50;;;;;;;7.55;5.07;;;;;;;18.37;100.00;100489.16;6165416;28;20051;-89
2023/08/15 04:01:52;;;;;;;9.88;4.97;;;;;;;18.35;100.00;100491.94;6166376;28;20063;-90
2023/08/15 04:04:54;;;;;;;8.23;5.30;;;;;;;18.35;100.00;100481.44;6168830;28;20066;-90
2023/08/15 04:07:56;;;;;;;7.25;4.30;;;;;;;18.36;100.00;100479.63;6168975;28;20045;-90
2023/08/15 04:10:57;;;;;;;7.22;4.60;;;;;;;18.36;100.00;100480.47;6131609;28;20059;-90
2023/08/15 04:13:59;;;;;;;12.32;5.38;;;;;;;18.35;100.00;100486.69;6167921;28;20408;-89
2023/08/15 04:17:01;;;;;;;9.27;4.72;;;;;;;18.39;100.00;100489.78;6172277;28;20070;-90
2023/08/15 04:20:04;;;;;;;6.90;4.70;;;;;;;18.41;100.00;100512.22;6168671;28;20502;-90
2023/08/15 04:23:08;;;;;;;5.28;4.38;;;;;;;18.43;100.00;100514.66;6155732;28;20051;-90
2023/08/15 04:26:10;;;;;;;5.97;4.40;;;;;;;18.43;100.00;100518.09;6166946;28;20038;-90
2023/08/15 04:29:12;;;;;;;6.82;4.50;;;;;;;18.45;100.00;100523.16;6172141;28;20054;-90
2023/08/15 04:32:14;;;;;;;4.80;4.07;;;;;;;18.47;100.00;100529.88;6188744;28;20177;-89
2023/08/15 04:35:16;;;;;;;6.70;4.25;;;;;;;18.49;100.00;100527.88;6158722;28;20078;-89
2023/08/15 04:38:20;;;;;;;5.32;4.07;;;;;;;18.54;100.00;100519.50;6176156;28;20125;-89
2023/08/15 04:41:23;;;;;;;7.70;4.88;;;;;;;18.59;100.00;100532.91;6171690;28;20535;-89
2023/08/15 04:44:25;;;;;;;7.03;4.60;;;;;;;18.64;100.00;100535.84;6166187;28;20404;-90
2023/08/15 04:47:26;;;;;;;5.47;4.35;;;;;;;18.73;100.00;100532.19;6166173;28;20058;-89
2023/08/15 04:50:29;;;;;;;5.07;4.60;;;;;;;18.85;100.00;100529.16;6165947;28;20058;-90
2023/08/15 04:53:31;;;;;;;4.53;3.78;;;;;;;18.98;100.00;100528.56;6164995;28;20520;-89
2023/08/15 04:56:32;;;;;;;6.57;4.85;;;;;;;19.17;100.00;100522.03;6188949;28;20564;-90
2023/08/15 04:59:34;;;;;;;5.28;4.50;;;;;;;19.45;100.00;100532.75;6166111;28;20153;-89
2023/08/15 05:02:37;;;;;;;5.00;4.22;;;;;;;19.73;100.00;100530.38;6180012;28;20049;-90
2023/08/15 05:05:38;;;;;;;6.18;4.45;;;;;;;19.96;100.00;100530.28;6180527;28;20054;-90
2023/08/15 05:08:41;;;;;;;5.97;4.45;;;;;;;20.15;100.00;100527.09;6167851;28;20130;-90
2023/08/15 05:11:45;;;;;;;6.03;4.47;;;;;;;20.35;100.00;100519.44;6188402;28;20129;-90
2023/08/15 05:14:47;;;;;;;8.32;4.47;;;;;;;20.57;100.00;100519.47;6180613;28;20083;-90
2023/08/15 05:17:50;;;;;;;5.35;3.85;;;;;;;20.79;100.00;100515.84;6162364;28;20101;-90
2023/08/15 05:20:52;;;;;;;8.60;3.78;;;;;;;21.00;100.00;100509.75;6177016;28;20198;-90
2023/08/15 05:23:55;;;;;;;5.32;3.92;;;;;;;21.16;100.00;100492.88;6175386;28;20066;-90
2023/08/15 05:26:57;;;;;;;6.03;4.10;;;;;;;21.25;100.00;100493.56;6179155;28;20074;-90
2023/08/15 05:30:00;;;;;;;7.28;3.83;;;;;;;21.29;100.00;100494.78;6171816;28;20047;-91
2023/08/15 05:33:02;;;;;;;8.30;4.65;;;;;;;21.26;100.00;100495.16;6169187;28;20047;-90
2023/08/15 05:36:04;;;;;;;7.43;4.25;;;;;;;21.22;100.00;100486.03;6167213;28;20074;-90
2023/08/15 05:39:07;;;;;;;6.82;3.70;;;;;;;21.20;100.00;100483.59;6165338;28;20463;-90
2023/08/15 05:42:10;;;;;;;6.75;3.63;;;;;;;21.16;100.00;100497.31;6180182;28;20034;-90
2023/08/15 05:45:13;;;;;;;4.88;4.05;;;;;;;21.06;100.00;100501.09;6187025;28;20042;-90
2023/08/15 05:48:15;;;;;;;5.43;3.95;;;;;;;20.98;100.00;100509.13;6157545;28;20130;-90
2023/08/15 05:51:17;;;;;;;4.82;4.10;;;;;;;20.92;100.00;100522.22;6167050;28;20051;-90
2023/08/15 05:54:19;;;;;;;8.85;4.05;;;;;;;20.82;100.00;100526.00;6168403;28;20506;-90
2023/08/15 05:57:20;;;;;;;5.95;4.07;;;;;;;20.77;100.00;100538.91;6178701;28;20093;-90
2023/08/15 06:00:23;;;;;;;6.82;4.20;;;;;;;20.70;100.00;100548.56;6158279;28;20055;-89
2023/08/15 06:03:25;;;;;;;6.25;3.92;;;;;;;20.63;100.00;100559.00;6183416;28;20565;-90
2023/08/15 06:06:47;;;;;;;9.00;4.10;;;;;;;20.57;100.00;100559.75;6176492;28;20404;-90
2023/08/15 06:09:48;;;;;;;6.80;3.95;;;;;;;20.43;100.00;100555.31;6174704;28;20088;-90
2023/08/15 06:12:50;;;;;;;9.82;4.07;;;;;;;20.28;100.00;100551.91;6174733;28;20043;-92
2023/08/15 06:15:52;;;;;;;7.10;4.68;;;;;;;20.09;100.00;100566.41;6174430;28;20042;-91
2023/08/15 06:18:54;;;;;;;7.45;4.03;;;;;;;19.95;100.00;100599.56;6178961;28;20042;-91
2023/08/15 06:21:56;;;;;;;8.68;4.80;;;;;;;19.87;100.00;100632.00;6183345;28;20042;-92
2023/08/15 06:24:58;;;;;;;6.47;4.28;;;;;;;19.82;100.00;100650.09;6180717;28;20568;-92
2023/08/15 06:28:00;;;;;;;9.95;5.50;;;;;;;19.72;100.00;100654.81;6178508;28;20125;-94
2023/08/15 06:31:03;;;;;;;9.88;5.47;;;;;;;19.66;100.00;100677.31;6165057;28;20050;-96
2023/08/15 06:34:05;;;;;;;9.82;5.63;;;;;;;19.68;100.00;100685.06;6193410;23;20103;-96
2023/08/15 06:37:07;;;;;;;10.60;6.00;;;;;;;19.63;100.00;100687.38;6226645;28;20052;-96
2023/08/15 06:40:11;;;;;;;10.82;5.88;;;;;;;19.50;100.00;100687.94;6190549;28;20710;-96
2023/08/15 06:43:13;;;;;;;11.70;5.78;;;;;;;19.48;100.00;100692.56;6203141;28;20083;-96
2023/08/15 06:46:16;;;;;;;7.65;5.53;;;;;;;19.35;100.00;100704.47;6187161;28;20367;-96
2023/08/15 06:49:18;;;;;;;10.18;5.60;;;;;;;19.32;100.00;100711.84;6205976;28;20047;-96
2023/08/15 06:52:21;;;;;;;7.43;5.18;;;;;;;19.41;100.00;100699.50;6194946;28;20043;-96
2023/08/15 06:55:23;;;;;;;6.53;4.60;;;;;;;19.33;100.00;100695.94;6192930;28;20049;-96
2023/08/15 06:58:27;;;;;;;8.50;5.00;;;;;;;19.25;100.00;100685.47;6174122;28;20492;-96
2023/08/15 07:01:30;;;;;;;10.88;5.38;;;;;;;19.29;100.00;100676.28;6197046;28;20407;-96
2023/08/15 07:04:33;;;;;;;7.07;5.43;;;;;;;19.42;100.00;100656.50;6191393;28;20049;-96
2023/08/15 07:07:35;;;;;;;8.63;4.88;;;;;;;19.57;100.00;100637.16;6218231;28;20041;-96
2023/08/15 07:10:50;;;;;;;7.47;5.45;;;;;;;19.73;100.00;100666.97;6226419;28;20038;-96
2023/08/15 07:14:01;;;;;;;15.38;5.30;;;;;;;19.83;100.00;100649.13;6217244;28;20042;-96
2023/08/15 07:17:05;;;;;;;7.50;4.90;;;;;;;19.83;100.00;100641.25;6204923;28;20061;-96
2023/08/15 07:20:17;;;;;;;9.35;5.05;;;;;;;19.87;100.00;100642.50;6207190;28;20082;-96
2023/08/15 07:23:26;;;;;;;5.10;4.25;;;;;;;19.98;100.00;100625.50;6190018;28;20061;-96
2023/08/15 07:26:29;;;;;;;5.72;4.75;;;;;;;20.13;100.00;100621.06;6204741;28;20109;-96
2023/08/15 07:29:39;;;;;;;5.80;4.00;;;;;;;20.23;100.00;100618.16;6218281;28;20060;-96
2023/08/15 07:33:09;;;;;;;6.55;4.60;;;;;;;20.43;100.00;100616.59;6230020;28;20052;-96
2023/08/15 08:16:59;;;;;;;3.03;2.35;;;;;;;22.74;100.00;100643.41;6464095;23;20062;-96
2023/08/15 08:20:31;;;;;;;2.80;2.33;;;;;;;22.86;100.00;100643.66;5986448;29;20122;-96
2023/08/15 08:23:41;;;;;;;4.25;3.00;;;;;;;23.01;100.00;100649.59;5982621;29;20520;-96
2023/08/15 08:26:47;;;;;;;3.95;2.72;;;;;;;23.02;100.00;100634.56;6012184;29;20137;-96
2023/08/15 08:29:50;;;;;;;2.55;2.28;;;;;;;22.78;100.00;100647.25;6011554;29;20193;-96
2023/08/15 08:32:53;;;;;;;3.53;2.60;;;;;;;22.50;100.00;100647.38;6010520;29;20049;-96
2023/08/15 08:35:59;;;;;;;3.05;2.22;;;;;;;22.32;100.00;100653.97;6016535;29;20053;-96
2023/08/15 08:39:01;;;;;;;4.35;2.40;;;;;;;22.21;100.00;100648.44;5987691;29;20065;-96
2023/08/15 08:42:05;;;;;;;3.20;2.40;;;;;;;22.11;100.00;100638.19;5991633;29;20509;-95
2023/08/15 08:45:14;;;;;;;4.82;2.60;;;;;;;22.12;100.00;100638.03;6001444;29;20057;-96
2023/08/15 08:48:17;;;;;;;3.70;2.20;;;;;;;22.17;100.00;100650.63;6001757;29;20633;-94
2023/08/15 08:51:21;;;;;;;5.38;2.60;;;;;;;22.18;100.00;100654.88;6003338;29;20085;-96
2023/08/15 08:54:24;;;;;;;2.45;2.25;;;;;;;22.15;100.00;100660.53;6002159;29;20050;-96
2023/08/15 08:57:58;;;;;;;3.17;2.88;;;;;;;22.10;100.00;100655.03;6003279;29;20053;-95
2023/08/15 09:01:02;;;;;;;2.85;2.50;;;;;;;22.11;100.00;100661.94;5990009;29;20153;-94
2023/08/15 09:04:05;;;;;;;3.38;2.53;;;;;;;22.15;100.00;100673.72;5984893;29;20047;-94
2023/08/15 09:07:07;;;;;;;4.05;2.55;;;;;;;22.17;100.00;100666.44;5986596;29;20521;-94
2023/08/15 09:10:10;;;;;;;4.93;2.20;;;;;;;22.24;100.00;100677.88;6003321;29;20087;-94
2023/08/15 09:13:20;;;;;;;2.85;2.53;;;;;;;22.31;100.00;100660.28;6001813;29;20065;-94
2023/08/15 09:16:22;;;;;;;3.10;2.25;;;;;;;22.45;100.00;100665.59;6005402;29;20059;-94
2023/08/15 09:19:25;;;;;;;4.20;2.35;;;;;;;22.73;100.00;100653.16;6005030;29;20572;-93
2023/08/15 09:22:27;;;;;;;3.83;2.50;;;;;;;22.92;100.00;100648.13;5997376;29;20431;-93
2023/08/15 09:25:30;;;;;;;4.20;2.42;;;;;;;23.03;100.00;100636.19;5997878;29;20046;-93
2023/08/15 09:28:39;;;;;;;3.38;2.20;;;;;;;23.15;100.00;100627.47;6000651;29;20132;-93
2023/08/15 09:31:41;;;;;;;2.78;1.83;;;;;;;23.06;100.00;100627.88;5996310;29;20050;-93
2023/08/15 09:34:44;;;;;;;2.33;1.92;;;;;;;22.91;100.00;100620.09;5991965;29;20055;-94
2023/08/15 09:37:47;;;;;;;4.40;1.90;;;;;;;22.89;100.00;100617.66;5991282;29;20053;-94
2023/08/15 09:40:52;;;;;;;5.43;2.50;;;;;;;22.97;100.00;100625.41;6000255;29;20222;-94
2023/08/15 09:43:54;;;;;;;3.63;1.83;;;;;;;23.05;100.00;100626.25;6000132;29;20363;-95
2023/08/15 09:46:57;;;;;;;5.53;2.08;;;;;;;23.04;100.00;100632.53;6007246;29;20347;-95
2023/08/15 09:49:59;;;;;;;2.53;2.33;;;;;;;23.12;100.00;100622.59;5994958;29;20057;-94
2023/08/15 09:53:03;;;;;;;2.58;2.30;;;;;;;23.26;100.00;100627.91;6002959;29;20524;-94
2023/08/15 09:56:05;;;;;;;5.70;2.55;;;;;;;23.46;100.00;100626.06;6003819;29;20256;-94
2023/08/15 09:59:10;;;;;;;2.28;2.08;;;;;;;23.65;100.00;100619.13;6000255;29;20046;-94
2023/08/15 10:02:21;;;;;;;3.70;2.05;;;;;;;23.76;100.00;100615.91;6000633;29;20045;-94
2023/08/15 10:05:26;;;;;;;2.28;2.08;;;;;;;23.78;100.00;100619.16;6002475;29;20355;-94
2023/08/15 10:08:29;;;;;;;4.82;2.30;;;;;;;23.58;100.00;100616.53;6002754;29;20098;-96
2023/08/15 10:11:39;;;;;;;4.28;3.20;;;;;;;23.57;100.00;100619.34;6009180;29;20042;-93
2023/08/15 10:14:41;;;;;;;;;;;;;;;23.72;100.00;100603.28;5993244;29;20069;-93
2023/08/15 10:17:44;;;;;;;5.05;3.50;;;;;;;23.88;100.00;100610.81;6008499;29;19929;-94
2023/08/15 10:20:51;;;;;;;4.82;3.00;;;;;;;24.00;100.00;100611.81;6003627;29;20046;-94
2023/08/15 10:23:54;;;;;;;3.80;3.10;;;;;;;24.17;100.00;100620.06;6003203;29;20045;-94
2023/08/15 10:26:59;;;;;;;3.40;3.10;;;;;;;24.25;100.00;100622.50;6001561;29;20359;-94
2023/08/15 10:30:04;;;;;;;3.95;3.30;;;;;;;24.49;100.00;100625.47;6002433;29;20041;-95
2023/08/15 10:33:12;;;;;;;4.60;3.15;;;;;;;24.86;100.00;100634.47;5996034;29;20604;-95
2023/08/15 10:36:15;;;;;;;3.88;3.17;;;;;;;25.21;100.00;100641.19;5998615;29;20135;-95
2023/08/15 10:39:18;;;;;;;3.10;2.83;;;;;;;25.52;100.00;100633.22;5997765;29;20045;-95
2023/08/15 10:42:20;;;;;;;3.80;3.20;;;;;;;25.77;100.00;100630.53;5999262;29;20560;-93
2023/08/15 10:45:23;;;;;;;3.08;2.80;;;;;;;25.76;100.00;100626.25;5986042;29;20042;-94
2023/08/15 10:48:49;;;;;;;3.83;2.97;;;;;;;25.76;100.00;100642.19;6002487;29;20042;-93
2023/08/15 10:51:58;;;;;;;3.55;2.83;;;;;;;25.86;100.00;100641.69;5996821;29;20050;-96
2023/08/15 10:55:00;;;;;;;5.18;3.10;;;;;;;26.04;100.00;100637.41;6000997;29;20129;-94
2023/08/15 10:58:10;;;;;;;3.55;3.25;;;;;;;26.07;100.00;100650.25;6001435;29;20053;-94
2023/08/15 11:01:23;;;;;;;3.20;2.80;;;;;;;26.19;100.00;100653.81;6001616;29;20435;-94
2023/08/15 11:04:25;;;;;;;3.78;3.00;;;;;;;26.24;100.00;100651.28;6003033;29;20439;-94
2023/08/15 11:07:28;;;;;;;4.55;3.08;;;;;;;26.22;100.00;100653.34;6001464;29;20512;-95
2023/08/15 11:10:30;;;;;;;3.80;3.03;;;;;;;26.00;100.00;100652.97;6005667;29;20046;-94
2023/08/15 11:13:41;;;;;;;2.95;2.67;;;;;;;25.87;100.00;100653.94;5997609;29;20046;-94
2023/08/15 11:16:49;;;;;;;3.60;2.60;;;;;;;25.58;100.00;100669.44;5996003;29;20511;-95
2023/08/15 11:19:51;;;;;;;4.00;3.00;;;;;;;25.49;100.00;100660.16;5977352;29;20065;-93
2023/08/15 11:22:59;;;;;;;3.25;2.95;;;;;;;25.72;100.00;100656.09;5994447;29;20384;-93
2023/08/15 11:26:03;;;;;;;4.53;2.88;;;;;;;25.85;100.00;100661.28;5990203;29;20673;-93
2023/08/15 11:29:05;;;;;;;3.83;2.80;;;;;;;25.94;100.00;100661.81;6013629;29;20038;-92
2023/08/15 11:32:08;;;;;;;4.32;3.38;;;;;;;25.88;100.00;100658.19;5997579;29;20045;-92
2023/08/15 11:35:11;;;;;;;3.83;3.00;;;;;;;25.93;100.00;100658.34;6008905;29;20037;-93
2023/08/15 11:38:17;;;;;;;3.47;3.00;;;;;;;26.00;100.00;100656.44;6003149;29;20506;-93
2023/08/15 11:41:19;;;;;;;3.72;2.90;;;;;;;26.05;100.00;100658.44;6003519;29;20057;-94
2023/08/15 11:44:22;;;;;;;3.72;3.33;;;;;;;26.08;100.00;100654.53;5997937;29;20051;-93
2023/08/15 11:47:24;;;;;;;3.53;3.05;;;;;;;26.06;100.00;100657.41;5990126;29;20046;-93
2023/08/15 11:50:28;;;;;;;4.68;3.10;;;;;;;26.22;100.00;100663.97;5997147;29;20540;-93
2023/08/15 11:53:52;;;;;;;3.65;2.60;;;;;;;26.40;100.00;100666.59;6001588;29;20074;-92
2023/08/15 11:56:54;;;;;;;;;;;;;;;26.57;100.00;100668.69;6006956;29;20540;-93
2023/08/15 11:59:56;;;;;;;3.45;3.15;;;;;;;26.62;100.00;100664.31;5998957;29;19929;-92
2023/08/15 12:02:58;;;;;;;3.83;3.28;;;;;;;26.71;100.00;100671.97;5989971;29;20041;-92
2023/08/15 12:06:05;;;;;;;5.15;3.20;;;;;;;26.72;100.00;100663.00;5993594;29;20069;-92
2023/08/15 12:09:07;;;;;;;3.75;3.00;;;;;;;26.67;100.00;100665.50;5999885;29;20532;-92
2023/08/15 12:12:19;;;;;;;3.70;3.38;;;;;;;26.56;100.00;100664.44;6000697;29;20560;-93
2023/08/15 12:15:21;;;;;;;4.18;3.78;;;;;;;26.42;100.00;100667.19;6002106;29;20117;-93
2023/08/15 12:18:24;;;;;;;3.88;3.25;;;;;;;26.30;100.00;100673.47;6009288;29;20075;-92
2023/08/15 12:21:25;;;;;;;3.30;2.90;;;;;;;25.92;100.00;100667.34;6002197;29;20564;-92
2023/08/15 12:24:28;;;;;;;3.83;3.53;;;;;;;25.76;100.00;100665.22;6000632;29;20390;-92
2023/08/15 12:27:30;;;;;;;4.03;3.63;;;;;;;25.84;100.00;100659.66;5999997;29;20050;-92
2023/08/15 12:30:32;;;;;;;3.95;3.55;;;;;;;26.12;100.00;100661.03;6000784;29;20042;-91
2023/08/15 12:33:35;;;;;;;5.13;3.53;;;;;;;26.32;100.00;100661.59;6000897;29;20082;-91
2023/08/15 12:36:48;;;;;;;3.65;3.20;;;;;;;26.04;100.00;100650.69;6000977;29;20056;-92
2023/08/15 12:39:51;;;;;;;4.65;4.03;;;;;;;25.76;100.00;100658.09;6001370;29;20057;-92
2023/08/15 12:42:53;;;;;;;4.60;3.30;;;;;;;25.57;100.00;100659.06;6001867;29;20179;-92
2023/08/15 12:45:55;;;;;;;4.38;3.72;;;;;;;25.69;100.00;100662.63;6001549;29;20045;-91
2023/08/15 12:49:01;;;;;;;4.25;3.85;;;;;;;26.04;100.00;100667.44;5995914;29;20129;-92
2023/08/15 12:52:06;;;;;;;5.00;3.40;;;;;;;26.16;100.00;100660.38;5992768;29;20530;-92
2023/08/15 12:55:08;;;;;;;4.82;3.80;;;;;;;26.27;100.00;100672.06;5985891;29;20121;-91
2023/08/15 12:58:10;;;;;;;4.82;4.30;;;;;;;26.35;100.00;100663.81;5986407;29;20049;-91
2023/08/15 13:01:13;;;;;;;4.72;4.20;;;;;;;26.41;100.00;100667.44;5983017;29;20141;-91
2023/08/15 13:04:15;;;;;;;4.30;3.90;;;;;;;26.23;100.00;100660.28;5999706;29;20404;-91
2023/08/15 13:07:17;;;;;;;4.93;3.85;;;;;;;26.17;100.00;100664.63;5996041;29;20050;-92
2023/08/15 13:10:19;;;;;;;6.03;4.10;;;;;;;26.17;100.00;100663.81;5994597;29;20057;-91
2023/08/15 13:13:21;;;;;;;4.90;3.80;;;;;;;26.09;100.00;100664.94;6005666;29;20050;-91
2023/08/15 13:16:23;;;;;;;6.32;4.10;;;;;;;26.26;100.00;100661.66;5999171;29;20139;-91
2023/08/15 13:19:25;;;;;;;5.80;4.03;;;;;;;26.61;100.00;100668.03;5989146;29;20050;-91
2023/08/15 13:22:27;;;;;;;4.80;4.03;;;;;;;27.07;100.00;100668.44;5997838;29;20045;-91
2023/08/15 13:25:29;;;;;;;4.10;3.70;;;;;;;27.19;100.00;100660.53;6006681;29;20135;-91
2023/08/15 13:28:31;;;;;;;3.97;3.55;;;;;;;27.31;100.00;100673.84;6008599;29;20041;-91
2023/08/15 13:31:34;;;;;;;6.82;4.05;;;;;;;27.51;100.00;100666.34;6005514;29;20505;-91
2023/08/15 13:34:35;;;;;;;6.78;4.32;;;;;;;27.61;100.00;100677.22;6006112;29;20066;-91
2023/08/15 13:37:38;;;;;;;4.20;3.80;;;;;;;27.56;100.00;100684.28;6005792;29;20057;-91
2023/08/15 13:40:39;;;;;;;4.85;4.30;;;;;;;27.42;100.00;100678.34;6005013;29;20496;-91
2023/08/15 13:43:42;;;;;;;6.72;3.70;;;;;;;27.31;100.00;100685.28;6004578;29;20046;-91
2023/08/15 13:46:45;;;;;;;6.72;4.13;;;;;;;27.35;100.00;100689.09;6004133;29;20070;-91
2023/08/15 13:49:47;;;;;;;6.03;4.18;;;;;;;27.44;100.00;100700.22;6005599;29;20158;-91
2023/08/15 13:52:49;;;;;;;5.18;4.10;;;;;;;27.36;100.00;100692.56;6000013;29;20041;-91
2023/08/15 13:55:51;;;;;;;16.27;4.88;;;;;;;27.21;100.00;100693.81;5992682;29;20527;-91
2023/08/15 13:58:54;;;;;;;5.13;4.03;;;;;;;27.16;100.00;100692.84;5995885;29;20049;-91
2023/08/15 14:01:55;;;;;;;6.70;4.38;;;;;;;27.10;100.00;100693.72;5999959;29;20492;-91
2023/08/15 14:05:02;;;;;;;6.95;4.20;;;;;;;26.88;100.00;100698.72;6005737;29;20057;-91
2023/08/15 14:08:06;;;;;;;4.53;3.90;;;;;;;26.74;100.00;100696.25;6003285;29;20046;-91
2023/08/15 14:11:08;;;;;;;4.85;4.05;;;;;;;26.64;100.00;100704.75;6007067;29;20495;-91
2023/08/15 14:14:10;;;;;;;4.85;3.83;;;;;;;26.42;100.00;100696.41;6004525;29;20049;-91
2023/08/15 14:17:13;;;;;;;4.20;3.78;;;;;;;26.16;100.00;100694.88;6004099;29;20058;-91
2023/08/15 14:20:16;;;;;;;6.13;4.80;;;;;;;25.86;100.00;100692.06;6002883;29;20049;-91
2023/08/15 14:23:17;;;;;;;6.15;4.60;;;;;;;25.66;100.00;100694.88;6001857;29;20050;-91
2023/08/15 14:26:19;;;;;;;6.05;4.43;;;;;;;25.39;100.00;100696.94;5998637;29;20042;-91
2023/08/15 14:29:21;;;;;;;4.97;4.45;;;;;;;25.18;100.00;100694.63;6009750;29;20157;-91
2023/08/15 14:32:23;;;;;;;7.05;4.60;;;;;;;24.92;100.00;100707.78;6003225;29;20130;-91
2023/08/15 14:35:26;;;;;;;6.22;4.78;;;;;;;24.73;100.00;100697.28;6007207;29;20790;-90
2023/08/15 14:38:28;;;;;;;6.97;4.50;;;;;;;24.55;100.00;100693.47;5997532;29;20042;-90
2023/08/15 14:41:33;;;;;;;5.82;4.70;;;;;;;24.41;100.00;100694.50;6003575;29;20054;-90
2023/08/15 14:44:35;;;;;;;6.00;4.55;;;;;;;24.24;100.00;100689.66;5999886;29;20050;-90